sensor_id;sensor_type;location;lat;lon;timestamp;P1;durP1;ratioP1;P2;durP2;ratioP2
38529;SDS011;24301;54.332;48.386;2023-10-19T00:03:06;4.57;;;3.00;;
38529;SDS011;24301;54.332;48.386;2023-10-19T00:05:32;4.50;;;3.03;;
38529;SDS011;24301;54.332;48.386;2023-10-19T00:07:59;4.47;;;3.03;;
38529;SDS011;24301;54.332;48.386;2023-10-19T00:10:26;3.80;;;3.03;;
38529;SDS011;24301;54.332;48.386;2023-10-19T00:13:01;4.73;;;3.23;;
38529;SDS011;24301;54.332;48.386;2023-10-19T00:15:37;3.42;;;2.80;;
38529;SDS011;24301;54.332;48.386;2023-10-19T00:18:13;4.30;;;3.50;;
38529;SDS011;24301;54.332;48.386;2023-10-19T00:20:43;4.60;;;3.50;;
38529;SDS011;24301;54.332;48.386;2023-10-19T00:23:14;3.77;;;3.10;;
38529;SDS011;24301;54.332;48.386;2023-10-19T00:25:55;4.15;;;3.20;;
38529;SDS011;24301;54.332;48.386;2023-10-19T00:28:22;4.27;;;3.30;;
38529;SDS011;24301;54.332;48.386;2023-10-19T00:30:48;5.53;;;3.47;;
38529;SDS011;24301;54.332;48.386;2023-10-19T00:33:19;5.03;;;4.00;;
38529;SDS011;24301;54.332;48.386;2023-10-19T00:35:47;4.67;;;3.80;;
38529;SDS011;24301;54.332;48.386;2023-10-19T00:38:24;4.10;;;3.70;;
38529;SDS011;24301;54.332;48.386;2023-10-19T00:41:05;4.57;;;3.80;;
38529;SDS011;24301;54.332;48.386;2023-10-19T00:43:36;4.57;;;3.87;;
38529;SDS011;24301;54.332;48.386;2023-10-19T00:46:13;4.10;;;3.50;;
38529;SDS011;24301;54.332;48.386;2023-10-19T00:51:12;4.50;;;3.63;;
38529;SDS011;24301;54.332;48.386;2023-10-19T00:54:02;4.57;;;3.70;;
38529;SDS011;24301;54.332;48.386;2023-10-19T00:56:40;6.30;;;3.40;;
38529;SDS011;24301;54.332;48.386;2023-10-19T00:59:11;4.90;;;4.07;;
38529;SDS011;24301;54.332;48.386;2023-10-19T01:01:40;4.77;;;3.70;;
38529;SDS011;24301;54.332;48.386;2023-10-19T01:04:11;5.33;;;4.57;;
38529;SDS011;24301;54.332;48.386;2023-10-19T01:06:42;6.23;;;4.63;;
38529;SDS011;24301;54.332;48.386;2023-10-19T01:09:10;5.20;;;4.27;;
38529;SDS011;24301;54.332;48.386;2023-10-19T01:11:41;4.97;;;4.03;;
38529;SDS011;24301;54.332;48.386;2023-10-19T01:14:18;5.47;;;4.37;;
38529;SDS011;24301;54.332;48.386;2023-10-19T01:16:46;6.60;;;4.57;;
38529;SDS011;24301;54.332;48.386;2023-10-19T01:19:13;5.50;;;3.70;;
38529;SDS011;24301;54.332;48.386;2023-10-19T01:21:44;4.83;;;4.33;;
38529;SDS011;24301;54.332;48.386;2023-10-19T01:24:17;5.10;;;4.60;;
38529;SDS011;24301;54.332;48.386;2023-10-19T01:26:46;6.43;;;4.37;;
38529;SDS011;24301;54.332;48.386;2023-10-19T01:29:12;5.20;;;4.47;;
38529;SDS011;24301;54.332;48.386;2023-10-19T01:31:41;6.57;;;4.43;;
38529;SDS011;24301;54.332;48.386;2023-10-19T01:34:21;6.37;;;4.53;;
38529;SDS011;24301;54.332;48.386;2023-10-19T01:36:48;5.07;;;3.97;;
38529;SDS011;24301;54.332;48.386;2023-10-19T01:39:16;5.43;;;4.07;;
38529;SDS011;24301;54.332;48.386;2023-10-19T01:41:45;5.00;;;4.37;;
38529;SDS011;24301;54.332;48.386;2023-10-19T01:44:11;5.33;;;4.40;;
38529;SDS011;24301;54.332;48.386;2023-10-19T01:46:41;5.87;;;4.20;;
38529;SDS011;24301;54.332;48.386;2023-10-19T01:49:14;4.93;;;3.90;;
38529;SDS011;24301;54.332;48.386;2023-10-19T01:51:52;6.50;;;4.10;;
38529;SDS011;24301;54.332;48.386;2023-10-19T01:54:20;4.33;;;3.93;;
38529;SDS011;24301;54.332;48.386;2023-10-19T01:56:51;5.70;;;3.93;;
38529;SDS011;24301;54.332;48.386;2023-10-19T01:59:22;5.43;;;3.50;;
38529;SDS011;24301;54.332;48.386;2023-10-19T02:01:53;6.13;;;3.97;;
38529;SDS011;24301;54.332;48.386;2023-10-19T02:04:20;6.10;;;3.70;;
38529;SDS011;24301;54.332;48.386;2023-10-19T02:06:49;4.83;;;3.63;;
38529;SDS011;24301;54.332;48.386;2023-10-19T02:09:18;3.97;;;3.30;;
38529;SDS011;24301;54.332;48.386;2023-10-19T02:11:52;7.33;;;3.87;;
38529;SDS011;24301;54.332;48.386;2023-10-19T02:14:26;6.00;;;4.20;;
38529;SDS011;24301;54.332;48.386;2023-10-19T02:16:58;4.57;;;3.47;;
38529;SDS011;24301;54.332;48.386;2023-10-19T02:19:26;5.50;;;4.47;;
38529;SDS011;24301;54.332;48.386;2023-10-19T02:21:54;6.27;;;4.20;;
38529;SDS011;24301;54.332;48.386;2023-10-19T02:24:30;5.13;;;4.07;;
38529;SDS011;24301;54.332;48.386;2023-10-19T02:26:58;7.77;;;4.13;;
38529;SDS011;24301;54.332;48.386;2023-10-19T02:29:28;4.97;;;3.53;;
38529;SDS011;24301;54.332;48.386;2023-10-19T02:31:55;6.53;;;3.80;;
38529;SDS011;24301;54.332;48.386;2023-10-19T02:34:22;7.60;;;4.00;;
38529;SDS011;24301;54.332;48.386;2023-10-19T02:36:49;5.27;;;4.13;;
38529;SDS011;24301;54.332;48.386;2023-10-19T02:39:15;5.33;;;3.60;;
38529;SDS011;24301;54.332;48.386;2023-10-19T02:41:46;6.73;;;4.47;;
38529;SDS011;24301;54.332;48.386;2023-10-19T02:44:15;6.37;;;4.40;;
38529;SDS011;24301;54.332;48.386;2023-10-19T02:46:46;6.03;;;4.17;;
38529;SDS011;24301;54.332;48.386;2023-10-19T02:49:14;5.00;;;3.73;;
38529;SDS011;24301;54.332;48.386;2023-10-19T02:51:44;6.03;;;4.43;;
38529;SDS011;24301;54.332;48.386;2023-10-19T02:54:12;6.53;;;3.77;;
38529;SDS011;24301;54.332;48.386;2023-10-19T02:56:51;6.33;;;4.00;;
38529;SDS011;24301;54.332;48.386;2023-10-19T02:59:20;5.80;;;4.07;;
38529;SDS011;24301;54.332;48.386;2023-10-19T03:01:52;5.43;;;3.80;;
38529;SDS011;24301;54.332;48.386;2023-10-19T03:04:38;7.23;;;3.73;;
38529;SDS011;24301;54.332;48.386;2023-10-19T03:07:05;4.77;;;3.60;;
38529;SDS011;24301;54.332;48.386;2023-10-19T03:09:38;4.70;;;3.38;;
38529;SDS011;24301;54.332;48.386;2023-10-19T03:12:05;5.07;;;3.23;;
38529;SDS011;24301;54.332;48.386;2023-10-19T03:14:36;6.13;;;2.90;;
38529;SDS011;24301;54.332;48.386;2023-10-19T03:17:03;4.53;;;3.57;;
38529;SDS011;24301;54.332;48.386;2023-10-19T03:19:31;6.73;;;4.07;;
38529;SDS011;24301;54.332;48.386;2023-10-19T03:21:57;5.23;;;3.83;;
38529;SDS011;24301;54.332;48.386;2023-10-19T03:24:27;4.90;;;3.50;;
38529;SDS011;24301;54.332;48.386;2023-10-19T03:27:03;4.27;;;3.30;;
38529;SDS011;24301;54.332;48.386;2023-10-19T03:29:46;5.27;;;3.57;;
38529;SDS011;24301;54.332;48.386;2023-10-19T03:32:21;5.13;;;3.83;;
38529;SDS011;24301;54.332;48.386;2023-10-19T03:34:53;5.87;;;3.67;;
38529;SDS011;24301;54.332;48.386;2023-10-19T03:37:24;4.33;;;2.90;;
38529;SDS011;24301;54.332;48.386;2023-10-19T03:39:51;5.50;;;3.50;;
38529;SDS011;24301;54.332;48.386;2023-10-19T03:42:22;6.07;;;3.87;;
38529;SDS011;24301;54.332;48.386;2023-10-19T03:44:51;5.30;;;3.10;;
38529;SDS011;24301;54.332;48.386;2023-10-19T03:47:19;6.13;;;3.43;;
38529;SDS011;24301;54.332;48.386;2023-10-19T03:49:47;5.20;;;3.33;;
38529;SDS011;24301;54.332;48.386;2023-10-19T03:52:14;6.23;;;3.70;;
38529;SDS011;24301;54.332;48.386;2023-10-19T03:54:40;7.53;;;3.73;;
38529;SDS011;24301;54.332;48.386;2023-10-19T03:57:08;5.50;;;3.63;;
38529;SDS011;24301;54.332;48.386;2023-10-19T03:59:46;5.33;;;3.03;;
38529;SDS011;24301;54.332;48.386;2023-10-19T04:02:16;6.07;;;4.33;;
38529;SDS011;24301;54.332;48.386;2023-10-19T04:04:49;5.63;;;3.67;;
38529;SDS011;24301;54.332;48.386;2023-10-19T04:07:18;5.53;;;3.43;;
38529;SDS011;24301;54.332;48.386;2023-10-19T04:09:48;6.33;;;3.73;;
38529;SDS011;24301;54.332;48.386;2023-10-19T04:12:36;7.00;;;3.83;;
38529;SDS011;24301;54.332;48.386;2023-10-19T04:15:10;5.60;;;3.40;;
38529;SDS011;24301;54.332;48.386;2023-10-19T04:17:45;6.60;;;3.47;;
38529;SDS011;24301;54.332;48.386;2023-10-19T04:20:13;6.30;;;3.60;;
38529;SDS011;24301;54.332;48.386;2023-10-19T04:22:47;6.73;;;3.97;;
38529;SDS011;24301;54.332;48.386;2023-10-19T04:25:19;6.07;;;3.80;;
38529;SDS011;24301;54.332;48.386;2023-10-19T04:27:46;4.80;;;3.77;;
38529;SDS011;24301;54.332;48.386;2023-10-19T04:30:14;6.27;;;4.27;;
38529;SDS011;24301;54.332;48.386;2023-10-19T04:32:45;6.03;;;3.63;;
38529;SDS011;24301;54.332;48.386;2023-10-19T04:35:12;5.30;;;3.13;;
38529;SDS011;24301;54.332;48.386;2023-10-19T04:37:40;5.10;;;3.53;;
38529;SDS011;24301;54.332;48.386;2023-10-19T04:40:11;7.37;;;3.53;;
38529;SDS011;24301;54.332;48.386;2023-10-19T04:42:37;5.87;;;3.70;;
38529;SDS011;24301;54.332;48.386;2023-10-19T04:45:03;8.47;;;5.30;;
38529;SDS011;24301;54.332;48.386;2023-10-19T04:47:31;5.63;;;3.83;;
38529;SDS011;24301;54.332;48.386;2023-10-19T04:50:01;7.07;;;3.63;;
38529;SDS011;24301;54.332;48.386;2023-10-19T04:52:30;7.53;;;4.10;;
38529;SDS011;24301;54.332;48.386;2023-10-19T04:54:56;7.40;;;3.87;;
38529;SDS011;24301;54.332;48.386;2023-10-19T04:57:23;6.93;;;3.60;;
38529;SDS011;24301;54.332;48.386;2023-10-19T04:59:48;5.53;;;3.80;;
38529;SDS011;24301;54.332;48.386;2023-10-19T05:02:15;7.13;;;3.57;;
38529;SDS011;24301;54.332;48.386;2023-10-19T05:04:42;4.13;;;3.10;;
38529;SDS011;24301;54.332;48.386;2023-10-19T05:07:09;5.33;;;3.20;;
38529;SDS011;24301;54.332;48.386;2023-10-19T05:09:38;7.20;;;3.70;;
38529;SDS011;24301;54.332;48.386;2023-10-19T05:12:05;6.00;;;3.97;;
38529;SDS011;24301;54.332;48.386;2023-10-19T05:14:35;8.23;;;3.93;;
38529;SDS011;24301;54.332;48.386;2023-10-19T05:17:02;6.77;;;3.77;;
38529;SDS011;24301;54.332;48.386;2023-10-19T05:19:33;5.43;;;4.10;;
38529;SDS011;24301;54.332;48.386;2023-10-19T05:22:00;8.03;;;3.90;;
38529;SDS011;24301;54.332;48.386;2023-10-19T05:24:27;6.53;;;3.90;;
38529;SDS011;24301;54.332;48.386;2023-10-19T05:26:53;7.43;;;4.60;;
38529;SDS011;24301;54.332;48.386;2023-10-19T05:29:20;7.50;;;3.93;;
38529;SDS011;24301;54.332;48.386;2023-10-19T05:31:46;6.43;;;3.93;;
38529;SDS011;24301;54.332;48.386;2023-10-19T05:34:12;9.03;;;5.10;;
38529;SDS011;24301;54.332;48.386;2023-10-19T05:36:38;8.47;;;5.20;;
38529;SDS011;24301;54.332;48.386;2023-10-19T05:39:10;7.60;;;5.13;;
38529;SDS011;24301;54.332;48.386;2023-10-19T05:41:36;8.10;;;4.50;;
38529;SDS011;24301;54.332;48.386;2023-10-19T05:44:04;6.20;;;4.77;;
38529;SDS011;24301;54.332;48.386;2023-10-19T05:46:30;10.53;;;4.57;;
38529;SDS011;24301;54.332;48.386;2023-10-19T05:48:57;8.07;;;4.83;;
38529;SDS011;24301;54.332;48.386;2023-10-19T05:51:23;8.47;;;4.90;;
38529;SDS011;24301;54.332;48.386;2023-10-19T05:53:50;8.97;;;5.40;;
38529;SDS011;24301;54.332;48.386;2023-10-19T05:56:30;7.23;;;4.80;;
38529;SDS011;24301;54.332;48.386;2023-10-19T05:58:57;10.73;;;4.43;;
38529;SDS011;24301;54.332;48.386;2023-10-19T06:01:24;6.20;;;4.10;;
38529;SDS011;24301;54.332;48.386;2023-10-19T06:03:51;5.70;;;4.00;;
38529;SDS011;24301;54.332;48.386;2023-10-19T06:06:18;7.33;;;4.60;;
38529;SDS011;24301;54.332;48.386;2023-10-19T06:08:46;7.17;;;4.37;;
38529;SDS011;24301;54.332;48.386;2023-10-19T06:11:12;6.97;;;3.93;;
38529;SDS011;24301;54.332;48.386;2023-10-19T06:13:39;8.57;;;4.40;;
38529;SDS011;24301;54.332;48.386;2023-10-19T06:16:05;8.10;;;4.20;;
38529;SDS011;24301;54.332;48.386;2023-10-19T06:18:32;6.43;;;4.30;;
38529;SDS011;24301;54.332;48.386;2023-10-19T06:20:58;6.53;;;4.37;;
38529;SDS011;24301;54.332;48.386;2023-10-19T06:23:24;7.33;;;4.30;;
38529;SDS011;24301;54.332;48.386;2023-10-19T06:25:50;6.63;;;3.87;;
38529;SDS011;24301;54.332;48.386;2023-10-19T06:28:19;6.50;;;4.40;;
38529;SDS011;24301;54.332;48.386;2023-10-19T06:30:45;6.93;;;4.23;;
38529;SDS011;24301;54.332;48.386;2023-10-19T06:33:14;6.40;;;4.50;;
38529;SDS011;24301;54.332;48.386;2023-10-19T06:35:40;6.67;;;3.93;;
38529;SDS011;24301;54.332;48.386;2023-10-19T06:38:06;6.27;;;4.30;;
38529;SDS011;24301;54.332;48.386;2023-10-19T06:40:35;8.03;;;4.07;;
38529;SDS011;24301;54.332;48.386;2023-10-19T06:43:02;7.40;;;4.27;;
38529;SDS011;24301;54.332;48.386;2023-10-19T06:45:28;10.43;;;4.47;;
38529;SDS011;24301;54.332;48.386;2023-10-19T06:47:55;6.83;;;4.10;;
38529;SDS011;24301;54.332;48.386;2023-10-19T06:50:23;5.13;;;3.63;;
38529;SDS011;24301;54.332;48.386;2023-10-19T06:52:49;6.93;;;4.03;;
38529;SDS011;24301;54.332;48.386;2023-10-19T06:55:17;7.20;;;3.80;;
38529;SDS011;24301;54.332;48.386;2023-10-19T06:57:47;6.77;;;3.73;;
38529;SDS011;24301;54.332;48.386;2023-10-19T07:00:15;4.90;;;3.93;;
38529;SDS011;24301;54.332;48.386;2023-10-19T07:02:49;8.83;;;4.40;;
38529;SDS011;24301;54.332;48.386;2023-10-19T07:05:17;7.50;;;4.07;;
38529;SDS011;24301;54.332;48.386;2023-10-19T07:07:46;7.00;;;4.70;;
38529;SDS011;24301;54.332;48.386;2023-10-19T07:10:12;6.30;;;4.10;;
38529;SDS011;24301;54.332;48.386;2023-10-19T07:12:40;10.37;;;4.20;;
38529;SDS011;24301;54.332;48.386;2023-10-19T07:15:09;6.30;;;4.00;;
38529;SDS011;24301;54.332;48.386;2023-10-19T07:17:42;8.67;;;4.37;;
38529;SDS011;24301;54.332;48.386;2023-10-19T07:20:10;8.13;;;3.90;;
38529;SDS011;24301;54.332;48.386;2023-10-19T07:22:57;6.70;;;4.20;;
38529;SDS011;24301;54.332;48.386;2023-10-19T07:25:47;5.80;;;4.10;;
38529;SDS011;24301;54.332;48.386;2023-10-19T07:28:18;6.53;;;4.07;;
38529;SDS011;24301;54.332;48.386;2023-10-19T07:30:45;5.57;;;3.80;;
38529;SDS011;24301;54.332;48.386;2023-10-19T07:33:12;7.53;;;3.67;;
38529;SDS011;24301;54.332;48.386;2023-10-19T07:35:48;6.00;;;3.77;;
38529;SDS011;24301;54.332;48.386;2023-10-19T07:38:23;5.00;;;3.30;;
38529;SDS011;24301;54.332;48.386;2023-10-19T07:40:51;5.57;;;3.57;;
38529;SDS011;24301;54.332;48.386;2023-10-19T07:43:20;6.33;;;3.33;;
38529;SDS011;24301;54.332;48.386;2023-10-19T07:45:47;6.22;;;4.85;;
38529;SDS011;24301;54.332;48.386;2023-10-19T07:48:14;4.95;;;4.05;;
38529;SDS011;24301;54.332;48.386;2023-10-19T07:50:40;6.60;;;4.40;;
38529;SDS011;24301;54.332;48.386;2023-10-19T07:53:08;7.18;;;4.18;;
38529;SDS011;24301;54.332;48.386;2023-10-19T07:55:37;7.47;;;3.47;;
38529;SDS011;24301;54.332;48.386;2023-10-19T07:58:04;6.25;;;3.35;;
38529;SDS011;24301;54.332;48.386;2023-10-19T08:00:32;4.30;;;3.47;;
38529;SDS011;24301;54.332;48.386;2023-10-19T08:02:59;7.17;;;3.53;;
38529;SDS011;24301;54.332;48.386;2023-10-19T08:05:26;8.53;;;4.50;;
38529;SDS011;24301;54.332;48.386;2023-10-19T08:07:52;5.43;;;3.87;;
38529;SDS011;24301;54.332;48.386;2023-10-19T08:10:18;4.60;;;3.40;;
38529;SDS011;24301;54.332;48.386;2023-10-19T08:12:46;7.83;;;3.77;;
38529;SDS011;24301;54.332;48.386;2023-10-19T08:15:14;6.60;;;3.90;;
38529;SDS011;24301;54.332;48.386;2023-10-19T08:17:41;5.87;;;3.73;;
38529;SDS011;24301;54.332;48.386;2023-10-19T08:20:09;9.00;;;3.87;;
38529;SDS011;24301;54.332;48.386;2023-10-19T08:22:58;5.73;;;3.83;;
38529;SDS011;24301;54.332;48.386;2023-10-19T08:25:26;9.40;;;4.67;;
38529;SDS011;24301;54.332;48.386;2023-10-19T08:27:53;7.87;;;4.07;;
38529;SDS011;24301;54.332;48.386;2023-10-19T08:30:23;4.30;;;3.47;;
38529;SDS011;24301;54.332;48.386;2023-10-19T08:32:51;7.87;;;3.83;;
38529;SDS011;24301;54.332;48.386;2023-10-19T08:35:19;4.47;;;2.80;;
38529;SDS011;24301;54.332;48.386;2023-10-19T08:37:54;5.30;;;2.93;;
38529;SDS011;24301;54.332;48.386;2023-10-19T08:40:24;5.33;;;3.00;;
38529;SDS011;24301;54.332;48.386;2023-10-19T08:42:53;4.10;;;2.40;;
38529;SDS011;24301;54.332;48.386;2023-10-19T08:45:19;4.57;;;2.67;;
38529;SDS011;24301;54.332;48.386;2023-10-19T08:50:24;6.10;;;2.90;;
38529;SDS011;24301;54.332;48.386;2023-10-19T08:52:52;5.00;;;2.90;;
38529;SDS011;24301;54.332;48.386;2023-10-19T08:55:19;3.80;;;2.70;;
38529;SDS011;24301;54.332;48.386;2023-10-19T08:57:46;4.17;;;2.57;;
38529;SDS011;24301;54.332;48.386;2023-10-19T09:00:15;5.60;;;3.63;;
38529;SDS011;24301;54.332;48.386;2023-10-19T09:02:46;7.80;;;4.17;;
38529;SDS011;24301;54.332;48.386;2023-10-19T09:05:12;8.00;;;4.60;;
38529;SDS011;24301;54.332;48.386;2023-10-19T09:07:49;4.50;;;2.80;;
38529;SDS011;24301;54.332;48.386;2023-10-19T09:10:27;7.07;;;3.23;;
38529;SDS011;24301;54.332;48.386;2023-10-19T09:13:06;6.00;;;3.57;;
38529;SDS011;24301;54.332;48.386;2023-10-19T09:15:36;4.20;;;2.17;;
38529;SDS011;24301;54.332;48.386;2023-10-19T09:18:17;5.57;;;2.80;;
38529;SDS011;24301;54.332;48.386;2023-10-19T09:20:45;2.27;;;2.00;;
38529;SDS011;24301;54.332;48.386;2023-10-19T09:23:20;14.00;;;3.67;;
38529;SDS011;24301;54.332;48.386;2023-10-19T09:25:50;5.67;;;3.10;;
38529;SDS011;24301;54.332;48.386;2023-10-19T09:28:23;4.73;;;2.70;;
38529;SDS011;24301;54.332;48.386;2023-10-19T09:30:50;4.83;;;2.83;;
38529;SDS011;24301;54.332;48.386;2023-10-19T09:33:17;3.90;;;2.73;;
38529;SDS011;24301;54.332;48.386;2023-10-19T09:35:45;4.37;;;2.27;;
38529;SDS011;24301;54.332;48.386;2023-10-19T09:38:17;4.27;;;3.23;;
38529;SDS011;24301;54.332;48.386;2023-10-19T09:40:53;7.13;;;3.97;;
38529;SDS011;24301;54.332;48.386;2023-10-19T09:43:30;4.73;;;2.97;;
38529;SDS011;24301;54.332;48.386;2023-10-19T09:46:00;2.63;;;2.07;;
38529;SDS011;24301;54.332;48.386;2023-10-19T09:48:31;5.70;;;2.97;;
38529;SDS011;24301;54.332;48.386;2023-10-19T09:51:02;4.17;;;2.60;;
38529;SDS011;24301;54.332;48.386;2023-10-19T09:53:29;2.70;;;2.07;;
38529;SDS011;24301;54.332;48.386;2023-10-19T09:55:57;2.50;;;2.10;;
38529;SDS011;24301;54.332;48.386;2023-10-19T09:58:33;4.40;;;1.87;;
38529;SDS011;24301;54.332;48.386;2023-10-19T10:01:21;3.40;;;2.13;;
38529;SDS011;24301;54.332;48.386;2023-10-19T10:03:52;3.27;;;2.17;;
38529;SDS011;24301;54.332;48.386;2023-10-19T10:06:29;2.80;;;1.93;;
38529;SDS011;24301;54.332;48.386;2023-10-19T10:09:17;3.90;;;2.10;;
38529;SDS011;24301;54.332;48.386;2023-10-19T10:11:51;6.70;;;2.57;;
38529;SDS011;24301;54.332;48.386;2023-10-19T10:14:23;5.60;;;3.03;;
38529;SDS011;24301;54.332;48.386;2023-10-19T10:17:03;3.63;;;2.47;;
38529;SDS011;24301;54.332;48.386;2023-10-19T10:19:31;7.30;;;4.03;;
38529;SDS011;24301;54.332;48.386;2023-10-19T10:22:09;7.80;;;4.00;;
38529;SDS011;24301;54.332;48.386;2023-10-19T10:24:44;8.23;;;4.43;;
38529;SDS011;24301;54.332;48.386;2023-10-19T10:27:11;6.37;;;4.20;;
38529;SDS011;24301;54.332;48.386;2023-10-19T10:29:58;6.60;;;3.57;;
38529;SDS011;24301;54.332;48.386;2023-10-19T10:38:10;4.50;;;2.63;;
38529;SDS011;24301;54.332;48.386;2023-10-19T10:40:49;4.83;;;2.73;;
38529;SDS011;24301;54.332;48.386;2023-10-19T10:43:17;6.90;;;3.17;;
38529;SDS011;24301;54.332;48.386;2023-10-19T10:45:44;5.30;;;3.00;;
38529;SDS011;24301;54.332;48.386;2023-10-19T10:48:12;8.47;;;2.87;;
38529;SDS011;24301;54.332;48.386;2023-10-19T10:50:41;6.07;;;2.77;;
38529;SDS011;24301;54.332;48.386;2023-10-19T10:53:10;6.13;;;2.77;;
38529;SDS011;24301;54.332;48.386;2023-10-19T10:55:37;6.23;;;3.10;;
38529;SDS011;24301;54.332;48.386;2023-10-19T10:58:04;4.73;;;2.30;;
38529;SDS011;24301;54.332;48.386;2023-10-19T11:00:30;7.13;;;3.13;;
38529;SDS011;24301;54.332;48.386;2023-10-19T11:03:03;4.63;;;2.90;;
38529;SDS011;24301;54.332;48.386;2023-10-19T11:05:33;4.30;;;2.97;;
38529;SDS011;24301;54.332;48.386;2023-10-19T11:10:30;9.50;;;4.13;;
38529;SDS011;24301;54.332;48.386;2023-10-19T11:13:02;8.53;;;4.30;;
38529;SDS011;24301;54.332;48.386;2023-10-19T11:15:29;8.35;;;4.75;;
38529;SDS011;24301;54.332;48.386;2023-10-19T11:17:55;6.20;;;3.73;;
38529;SDS011;24301;54.332;48.386;2023-10-19T11:20:23;5.57;;;3.37;;
38529;SDS011;24301;54.332;48.386;2023-10-19T11:22:51;8.37;;;4.30;;
38529;SDS011;24301;54.332;48.386;2023-10-19T11:25:19;7.50;;;4.23;;
38529;SDS011;24301;54.332;48.386;2023-10-19T11:27:46;8.07;;;5.07;;
38529;SDS011;24301;54.332;48.386;2023-10-19T11:30:13;7.57;;;4.30;;
38529;SDS011;24301;54.332;48.386;2023-10-19T11:32:39;6.87;;;4.27;;
38529;SDS011;24301;54.332;48.386;2023-10-19T11:35:06;7.33;;;4.60;;
38529;SDS011;24301;54.332;48.386;2023-10-19T11:37:56;7.57;;;4.40;;
38529;SDS011;24301;54.332;48.386;2023-10-19T11:40:21;6.47;;;4.03;;
38529;SDS011;24301;54.332;48.386;2023-10-19T11:42:49;4.73;;;3.43;;
38529;SDS011;24301;54.332;48.386;2023-10-19T11:45:17;4.40;;;2.60;;
38529;SDS011;24301;54.332;48.386;2023-10-19T11:47:44;3.30;;;2.20;;
38529;SDS011;24301;54.332;48.386;2023-10-19T11:50:11;3.37;;;2.30;;
38529;SDS011;24301;54.332;48.386;2023-10-19T11:52:41;5.60;;;2.90;;
38529;SDS011;24301;54.332;48.386;2023-10-19T11:55:08;4.13;;;2.90;;
38529;SDS011;24301;54.332;48.386;2023-10-19T11:57:34;4.43;;;3.40;;
38529;SDS011;24301;54.332;48.386;2023-10-19T12:00:02;5.37;;;4.00;;
38529;SDS011;24301;54.332;48.386;2023-10-19T12:02:37;5.13;;;4.07;;
38529;SDS011;24301;54.332;48.386;2023-10-19T12:05:04;5.20;;;3.10;;
38529;SDS011;24301;54.332;48.386;2023-10-19T12:07:36;6.57;;;3.43;;
38529;SDS011;24301;54.332;48.386;2023-10-19T12:10:03;5.83;;;3.37;;
38529;SDS011;24301;54.332;48.386;2023-10-19T12:12:36;5.82;;;3.75;;
38529;SDS011;24301;54.332;48.386;2023-10-19T12:15:03;6.93;;;3.97;;
38529;SDS011;24301;54.332;48.386;2023-10-19T12:17:33;9.03;;;4.93;;
38529;SDS011;24301;54.332;48.386;2023-10-19T12:19:59;7.73;;;4.37;;
38529;SDS011;24301;54.332;48.386;2023-10-19T12:22:26;6.23;;;3.70;;
38529;SDS011;24301;54.332;48.386;2023-10-19T12:24:58;6.73;;;3.90;;
38529;SDS011;24301;54.332;48.386;2023-10-19T12:27:25;6.53;;;3.90;;
38529;SDS011;24301;54.332;48.386;2023-10-19T12:29:51;6.17;;;3.87;;
38529;SDS011;24301;54.332;48.386;2023-10-19T12:32:21;6.03;;;4.33;;
38529;SDS011;24301;54.332;48.386;2023-10-19T12:34:48;5.77;;;4.30;;
38529;SDS011;24301;54.332;48.386;2023-10-19T12:37:19;7.43;;;4.30;;
38529;SDS011;24301;54.332;48.386;2023-10-19T12:39:45;9.17;;;5.30;;
38529;SDS011;24301;54.332;48.386;2023-10-19T12:42:15;8.40;;;5.80;;
38529;SDS011;24301;54.332;48.386;2023-10-19T12:44:42;8.00;;;5.00;;
38529;SDS011;24301;54.332;48.386;2023-10-19T12:47:10;7.03;;;5.37;;
38529;SDS011;24301;54.332;48.386;2023-10-19T12:49:40;9.80;;;6.03;;
38529;SDS011;24301;54.332;48.386;2023-10-19T12:52:07;8.17;;;5.43;;
38529;SDS011;24301;54.332;48.386;2023-10-19T12:54:37;8.03;;;6.23;;
38529;SDS011;24301;54.332;48.386;2023-10-19T12:57:04;9.80;;;6.43;;
38529;SDS011;24301;54.332;48.386;2023-10-19T12:59:34;7.00;;;5.13;;
38529;SDS011;24301;54.332;48.386;2023-10-19T13:02:03;8.53;;;5.13;;
38529;SDS011;24301;54.332;48.386;2023-10-19T13:04:34;7.03;;;4.47;;
38529;SDS011;24301;54.332;48.386;2023-10-19T13:07:00;8.50;;;6.13;;
38529;SDS011;24301;54.332;48.386;2023-10-19T13:09:29;6.70;;;4.60;;
38529;SDS011;24301;54.332;48.386;2023-10-19T13:12:00;9.93;;;5.43;;
38529;SDS011;24301;54.332;48.386;2023-10-19T13:14:27;10.37;;;6.17;;
38529;SDS011;24301;54.332;48.386;2023-10-19T13:16:53;8.07;;;5.43;;
38529;SDS011;24301;54.332;48.386;2023-10-19T13:19:21;9.63;;;5.97;;
38529;SDS011;24301;54.332;48.386;2023-10-19T13:21:51;7.60;;;5.20;;
38529;SDS011;24301;54.332;48.386;2023-10-19T13:24:18;8.23;;;5.03;;
38529;SDS011;24301;54.332;48.386;2023-10-19T13:26:48;7.97;;;4.83;;
38529;SDS011;24301;54.332;48.386;2023-10-19T13:29:14;5.60;;;4.33;;
38529;SDS011;24301;54.332;48.386;2023-10-19T13:31:44;6.63;;;4.43;;
38529;SDS011;24301;54.332;48.386;2023-10-19T13:34:16;6.83;;;4.30;;
38529;SDS011;24301;54.332;48.386;2023-10-19T13:36:42;6.07;;;3.40;;
38529;SDS011;24301;54.332;48.386;2023-10-19T13:39:10;6.97;;;3.90;;
38529;SDS011;24301;54.332;48.386;2023-10-19T13:41:41;7.23;;;4.03;;
38529;SDS011;24301;54.332;48.386;2023-10-19T13:44:07;8.60;;;5.17;;
38529;SDS011;24301;54.332;48.386;2023-10-19T13:46:33;10.50;;;5.07;;
38529;SDS011;24301;54.332;48.386;2023-10-19T13:48:59;9.97;;;4.83;;
38529;SDS011;24301;54.332;48.386;2023-10-19T13:51:29;8.87;;;4.00;;
38529;SDS011;24301;54.332;48.386;2023-10-19T13:53:55;5.67;;;3.70;;
38529;SDS011;24301;54.332;48.386;2023-10-19T13:56:20;6.07;;;3.77;;
38529;SDS011;24301;54.332;48.386;2023-10-19T13:58:46;6.33;;;3.70;;
38529;SDS011;24301;54.332;48.386;2023-10-19T14:01:13;5.30;;;3.80;;
38529;SDS011;24301;54.332;48.386;2023-10-19T14:03:39;5.27;;;3.33;;
38529;SDS011;24301;54.332;48.386;2023-10-19T14:06:05;6.47;;;3.63;;
38529;SDS011;24301;54.332;48.386;2023-10-19T14:08:31;7.00;;;3.27;;
38529;SDS011;24301;54.332;48.386;2023-10-19T14:11:03;6.27;;;3.80;;
38529;SDS011;24301;54.332;48.386;2023-10-19T14:13:29;5.07;;;2.97;;
38529;SDS011;24301;54.332;48.386;2023-10-19T14:15:56;8.43;;;3.30;;
38529;SDS011;24301;54.332;48.386;2023-10-19T14:18:22;6.83;;;4.00;;
38529;SDS011;24301;54.332;48.386;2023-10-19T14:20:48;4.00;;;2.90;;
38529;SDS011;24301;54.332;48.386;2023-10-19T14:23:14;5.53;;;3.13;;
38529;SDS011;24301;54.332;48.386;2023-10-19T14:25:40;6.87;;;3.27;;
38529;SDS011;24301;54.332;48.386;2023-10-19T14:28:07;4.23;;;3.00;;
38529;SDS011;24301;54.332;48.386;2023-10-19T14:30:35;4.60;;;3.03;;
38529;SDS011;24301;54.332;48.386;2023-10-19T14:33:02;5.20;;;3.53;;
38529;SDS011;24301;54.332;48.386;2023-10-19T14:35:28;5.73;;;3.37;;
38529;SDS011;24301;54.332;48.386;2023-10-19T14:37:55;4.73;;;2.73;;
38529;SDS011;24301;54.332;48.386;2023-10-19T14:40:23;5.20;;;2.80;;
38529;SDS011;24301;54.332;48.386;2023-10-19T14:42:54;5.70;;;3.63;;
38529;SDS011;24301;54.332;48.386;2023-10-19T14:45:24;6.07;;;2.90;;
38529;SDS011;24301;54.332;48.386;2023-10-19T14:47:54;5.63;;;3.23;;
38529;SDS011;24301;54.332;48.386;2023-10-19T14:50:22;3.97;;;2.60;;
38529;SDS011;24301;54.332;48.386;2023-10-19T14:52:49;4.53;;;3.13;;
38529;SDS011;24301;54.332;48.386;2023-10-19T14:55:21;6.20;;;2.90;;
38529;SDS011;24301;54.332;48.386;2023-10-19T14:57:51;11.00;;;6.90;;
38529;SDS011;24301;54.332;48.386;2023-10-19T15:00:20;8.70;;;4.93;;
38529;SDS011;24301;54.332;48.386;2023-10-19T15:02:48;4.43;;;3.10;;